Time;durP1;ratioP1;P1;durP2;ratioP2;P2;SDS_P1;SDS_P2;PMS_P1;PMS_P2;Temp;Humidity;BMP_temperature;BMP_pressure;BME280_temperature;BME280_humidity;BME280_pressure;Samples;Min_cycle;Max_cycle;Signal;HPM_P1;HPM_P2
2022/09/19 00:01:23;;;;;;;2.67;1.38;;;20.70;53.70;;;;;;5060495;28;20048;-85
2022/09/19 00:03:55;;;;;;;3.55;1.27;;;20.80;53.20;;;;;;5042311;28;20021;-83
2022/09/19 00:06:21;;;;;;;4.75;1.25;;;20.60;52.90;;;;;;5069722;28;20033;-83
2022/09/19 00:08:47;;;;;;;4.15;1.25;;;20.50;53.40;;;;;;5034998;28;20112;-78
2022/09/19 00:11:16;;;;;;;3.20;1.20;;;20.30;53.70;;;;;;5045151;28;20625;-81
2022/09/19 00:13:45;;;;;;;2.95;1.35;;;20.30;54.20;;;;;;5034124;28;20050;-85
2022/09/19 00:16:25;;;;;;;2.75;1.30;;;20.30;54.10;;;;;;5042082;28;20399;-82
2022/09/19 00:18:53;;;;;;;3.70;1.30;;;20.50;54.10;;;;;;5053274;28;20021;-85
2022/09/19 00:21:24;;;;;;;2.20;1.30;;;20.60;53.70;;;;;;5053766;28;20021;-94
2022/09/19 00:26:35;;;;;;;2.10;1.20;;;20.50;53.70;;;;;;5033653;28;20028;-82
2022/09/19 00:29:02;;;;;;;4.82;1.30;;;20.40;54.10;;;;;;5032339;28;20477;-84
2022/09/19 00:31:28;;;;;;;10.63;2.97;;;20.40;53.60;;;;;;5040733;28;20495;-84
2022/09/19 00:33:54;;;;;;;3.08;1.27;;;20.30;53.20;;;;;;5048231;28;20041;-82
2022/09/19 00:36:20;;;;;;;4.40;1.40;;;19.90;54.00;;;;;;5041800;28;20036;-82
2022/09/19 00:38:46;;;;;;;2.33;1.20;;;19.70;54.40;;;;;;5052594;28;20033;-79
2022/09/19 00:41:21;;;;;;;2.05;1.17;;;19.60;54.60;;;;;;5047311;28;20033;-83
2022/09/19 00:43:56;;;;;;;2.75;1.27;;;19.20;55.10;;;;;;5049170;28;20037;-81
2022/09/19 00:46:25;;;;;;;2.95;1.33;;;19.10;55.10;;;;;;5033347;28;20088;-90
2022/09/19 00:48:56;;;;;;;2.60;1.20;;;19.10;55.20;;;;;;5032768;28;20472;-88
2022/09/19 00:51:46;;;;;;;2.25;1.30;;;19.40;55.30;;;;;;5044088;28;20029;-88
2022/09/19 00:54:15;;;;;;;1.90;1.20;;;19.80;54.30;;;;;;5040124;28;20484;-78
2022/09/19 00:56:45;;;;;;;3.00;1.17;;;20.00;54.40;;;;;;5040612;28;20029;-94
2022/09/19 00:59:11;;;;;;;2.70;1.33;;;20.20;54.10;;;;;;5053354;28;20026;-80
2022/09/19 01:01:38;;;;;;;4.00;1.30;;;20.30;53.30;;;;;;5051368;28;20274;-90
2022/09/19 01:04:14;;;;;;;2.53;1.27;;;20.30;53.30;;;;;;5052866;28;20036;-85
2022/09/19 01:07:20;;;;;;;2.53;1.30;;;19.90;53.20;;;;;;5051821;28;20518;-84
2022/09/19 01:10:06;;;;;;;2.42;1.33;;;19.70;53.70;;;;;;5050403;28;20123;-85
2022/09/19 01:12:38;;;;;;;2.53;1.33;;;19.60;54.10;;;;;;5051481;28;20057;-86
2022/09/19 01:15:19;;;;;;;3.03;1.20;;;19.30;54.20;;;;;;5067880;28;20479;-79
2022/09/19 01:17:49;;;;;;;3.00;1.30;;;19.20;54.80;;;;;;5051773;28;20175;-79
2022/09/19 01:20:44;;;;;;;2.55;1.25;;;19.20;54.90;;;;;;5055453;28;20118;-87
2022/09/19 01:23:25;;;;;;;3.20;1.40;;;19.00;55.10;;;;;;5053980;28;20502;-80
2022/09/19 01:26:15;;;;;;;2.85;1.20;;;18.90;54.50;;;;;;5054301;28;20033;-81
2022/09/19 01:28:49;;;;;;;3.00;1.20;;;18.90;54.60;;;;;;5055199;28;20529;-80
2022/09/19 01:31:29;;;;;;;2.95;1.30;;;18.90;53.90;;;;;;5043829;28;20029;-86
2022/09/19 01:34:02;;;;;;;2.60;1.20;;;19.00;53.80;;;;;;5063151;28;20415;-85
2022/09/19 01:36:32;;;;;;;2.40;1.20;;;19.10;53.50;;;;;;5053102;28;20360;-81
2022/09/19 01:39:01;;;;;;;2.28;1.25;;;19.50;53.60;;;;;;5034722;28;20083;-84
2022/09/19 01:41:28;;;;;;;2.47;1.40;;;19.70;53.30;;;;;;5037292;28;21736;-87
2022/09/19 01:43:54;;;;;;;1.98;1.10;;;19.70;53.50;;;;;;5037214;28;20032;-83
2022/09/19 01:46:59;;;;;;;2.35;1.40;;;19.90;53.50;;;;;;5040514;28;20021;-89
2022/09/19 01:49:34;;;;;;;2.10;1.20;;;20.20;53.40;;;;;;4957570;28;20094;-83
2022/09/19 01:52:17;;;;;;;2.30;1.10;;;20.30;53.10;;;;;;4974929;28;20075;-80
2022/09/19 01:55:21;;;;;;;2.60;1.20;;;20.20;53.30;;;;;;4974958;28;20393;-79
2022/09/19 01:58:07;;;;;;;3.85;1.25;;;19.80;53.90;;;;;;4928974;29;20223;-83
2022/09/19 02:00:34;;;;;;;4.38;1.30;;;19.80;54.80;;;;;;4930707;29;20035;-85
2022/09/19 02:03:12;;;;;;;3.35;1.35;;;20.00;54.70;;;;;;4917580;29;20052;-86
2022/09/19 02:05:46;;;;;;;1.75;1.10;;;20.10;54.00;;;;;;4917558;29;20067;-89
2022/09/19 02:08:28;;;;;;;1.60;1.10;;;19.80;54.70;;;;;;4932764;29;20039;-81
2022/09/19 02:11:00;;;;;;;2.60;1.30;;;19.40;54.90;;;;;;4901611;29;20032;-80
2022/09/19 02:13:32;;;;;;;2.55;1.20;;;19.30;55.40;;;;;;4949020;29;20062;-82
2022/09/19 02:16:07;;;;;;;2.35;1.30;;;19.40;55.30;;;;;;4939424;29;20075;-82
2022/09/19 02:18:38;;;;;;;2.40;1.30;;;19.10;55.50;;;;;;4938455;29;20051;-79
2022/09/19 02:21:11;;;;;;;3.50;1.40;;;19.00;55.70;;;;;;4939096;29;20122;-85
2022/09/19 02:23:46;;;;;;;3.05;1.38;;;19.00;55.40;;;;;;4938906;29;20378;-87
2022/09/19 02:26:19;;;;;;;1.90;1.20;;;19.10;56.20;;;;;;5016659;28;20052;-84
2022/09/19 02:28:48;;;;;;;3.28;1.42;;;18.90;56.10;;;;;;5033038;28;20099;-87
2022/09/19 02:31:14;;;;;;;2.45;1.20;;;19.10;56.10;;;;;;5029589;28;20030;-80
2022/09/19 02:33:44;;;;;;;4.50;1.48;;;18.90;55.90;;;;;;5020244;28;20049;-88
2022/09/19 02:36:27;;;;;;;2.50;1.40;;;18.60;56.60;;;;;;5049732;28;20099;-90
2022/09/19 02:39:20;;;;;;;2.65;1.40;;;18.60;56.80;;;;;;5052514;28;20127;-84
2022/09/19 02:42:00;;;;;;;3.65;1.40;;;18.60;56.70;;;;;;5036976;28;20035;-86
2022/09/19 02:44:57;;;;;;;2.60;1.20;;;18.50;57.70;;;;;;5067661;28;20050;-90
2022/09/19 02:48:24;;;;;;;2.40;1.33;;;18.60;56.80;;;;;;5040377;28;20036;-85
2022/09/19 02:51:29;;;;;;;2.80;1.38;;;18.70;57.00;;;;;;5012939;28;20129;-82
2022/09/19 02:54:03;;;;;;;2.45;1.38;;;18.50;57.10;;;;;;4944091;28;20046;-86
2022/09/19 02:56:33;;;;;;;3.15;1.45;;;18.50;57.40;;;;;;4959699;28;20031;-91
2022/09/19 02:59:03;;;;;;;2.53;1.30;;;18.40;57.40;;;;;;4939383;29;20151;-89
2022/09/19 03:01:32;;;;;;;3.10;1.50;;;18.50;57.80;;;;;;4938740;29;20077;-81
2022/09/19 03:04:12;;;;;;;2.72;1.23;;;18.60;57.40;;;;;;4939040;29;20027;-86
2022/09/19 03:06:41;;;;;;;4.43;1.50;;;18.60;56.70;;;;;;4954676;29;20394;-91
2022/09/19 03:09:11;;;;;;;3.63;1.50;;;18.40;57.60;;;;;;4955229;29;20288;-89
2022/09/19 03:11:41;;;;;;;3.90;1.60;;;18.70;57.70;;;;;;4954445;28;20150;-81
2022/09/19 03:14:07;;;;;;;3.67;1.35;;;18.90;57.20;;;;;;4938582;29;20046;-85
2022/09/19 03:16:40;;;;;;;2.42;1.30;;;18.60;57.40;;;;;;4942486;29;20031;-86
2022/09/19 03:19:07;;;;;;;3.40;1.50;;;18.60;58.00;;;;;;4938259;29;20043;-79
2022/09/19 03:21:33;;;;;;;2.50;1.45;;;18.70;57.90;;;;;;4919854;29;20032;-83
2022/09/19 03:23:59;;;;;;;2.53;1.40;;;18.90;57.80;;;;;;4951986;28;20392;-88
2022/09/19 03:26:34;;;;;;;2.42;1.45;;;19.10;57.50;;;;;;5031528;28;20555;-89
2022/09/19 03:29:02;;;;;;;3.20;1.30;;;19.10;57.10;;;;;;5053319;28;20025;-84
2022/09/19 03:31:28;;;;;;;3.63;1.40;;;19.10;57.20;;;;;;5043520;28;22015;-79
2022/09/19 03:33:57;;;;;;;3.03;1.40;;;19.00;57.30;;;;;;5039444;28;20074;-78
2022/09/19 03:36:24;;;;;;;3.10;1.40;;;19.10;57.60;;;;;;5037872;28;20041;-77
2022/09/19 03:38:50;;;;;;;2.90;1.40;;;18.80;57.50;;;;;;5062505;28;20031;-78
2022/09/19 03:41:19;;;;;;;3.45;1.55;;;18.70;58.10;;;;;;5072301;28;20026;-80
2022/09/19 03:43:44;;;;;;;3.20;1.40;;;18.80;58.00;;;;;;5051535;28;20054;-80
2022/09/19 03:46:17;;;;;;;3.13;1.50;;;18.80;58.20;;;;;;5053909;28;20028;-80
2022/09/19 03:48:47;;;;;;;3.38;1.60;;;19.00;58.20;;;;;;5056694;28;20056;-87
2022/09/19 03:51:15;;;;;;;4.57;1.70;;;19.00;58.30;;;;;;5068516;28;20051;-80
2022/09/19 03:53:44;;;;;;;3.03;1.50;;;19.00;59.00;;;;;;5052874;28;20474;-80
2022/09/19 03:56:11;;;;;;;3.20;1.73;;;19.10;58.50;;;;;;5035957;28;20025;-83
2022/09/19 03:58:41;;;;;;;2.78;1.50;;;19.00;58.60;;;;;;5055296;28;20382;-83
2022/09/19 04:01:08;;;;;;;2.25;1.40;;;19.10;59.00;;;;;;5045319;28;20027;-83
2022/09/19 04:03:35;;;;;;;5.53;2.47;;;18.90;59.30;;;;;;5051966;28;20033;-80
2022/09/19 04:06:02;;;;;;;3.72;1.60;;;19.00;59.20;;;;;;5067052;28;20097;-82
2022/09/19 04:08:27;;;;;;;3.65;1.60;;;19.10;59.20;;;;;;5072546;28;20086;-80
2022/09/19 04:10:53;;;;;;;3.38;1.60;;;19.10;59.40;;;;;;5055435;28;20096;-81
2022/09/19 04:13:23;;;;;;;4.45;1.60;;;19.20;58.90;;;;;;5039780;28;20068;-81
2022/09/19 04:15:50;;;;;;;3.67;1.73;;;19.10;59.60;;;;;;5064917;28;20032;-92
2022/09/19 04:18:17;;;;;;;3.85;1.70;;;18.90;59.90;;;;;;5040610;28;20035;-82
2022/09/19 04:20:45;;;;;;;3.58;1.73;;;18.60;60.20;;;;;;5034847;28;20029;-86
2022/09/19 04:23:16;;;;;;;3.63;1.85;;;18.60;60.60;;;;;;5061663;28;20017;-79
2022/09/19 04:25:44;;;;;;;4.22;1.77;;;18.60;60.60;;;;;;5034869;28;20032;-81
2022/09/19 04:28:11;;;;;;;6.60;2.03;;;18.30;61.40;;;;;;5048211;28;20047;-83
2022/09/19 04:30:40;;;;;;;6.18;2.00;;;18.30;62.00;;;;;;5053253;28;20033;-79
2022/09/19 04:33:08;;;;;;;4.93;2.00;;;18.30;62.00;;;;;;5049510;28;20064;-79
2022/09/19 04:35:36;;;;;;;2.90;1.85;;;18.20;62.00;;;;;;5049419;28;20028;-82
2022/09/19 04:38:03;;;;;;;4.10;1.80;;;17.90;62.80;;;;;;5048375;28;20024;-82
2022/09/19 04:40:28;;;;;;;4.22;2.00;;;17.80;63.60;;;;;;5051784;28;20796;-83
2022/09/19 04:42:55;;;;;;;2.80;1.70;;;17.80;63.50;;;;;;5052450;28;20124;-80
2022/09/19 04:45:20;;;;;;;4.68;2.05;;;17.80;63.30;;;;;;5072930;28;20150;-82
2022/09/19 04:47:47;;;;;;;3.00;1.70;;;18.00;63.40;;;;;;5048228;28;20115;-78
2022/09/19 04:50:14;;;;;;;4.00;2.00;;;17.90;63.40;;;;;;5052215;28;20029;-85
2022/09/19 04:52:40;;;;;;;3.38;1.80;;;17.90;63.00;;;;;;5040991;28;20040;-79
2022/09/19 04:55:07;;;;;;;3.78;1.70;;;17.80;63.90;;;;;;5063851;28;20021;-81
2022/09/19 04:57:33;;;;;;;3.45;1.60;;;17.60;64.30;;;;;;5062986;28;20017;-82
2022/09/19 04:59:59;;;;;;;2.92;1.70;;;17.70;64.20;;;;;;5058911;28;20028;-82
2022/09/19 05:02:28;;;;;;;3.42;2.15;;;18.00;63.60;;;;;;5058763;28;20033;-83
2022/09/19 05:04:55;;;;;;;3.70;1.92;;;18.10;62.90;;;;;;5076367;28;20017;-92
2022/09/19 05:07:21;;;;;;;3.53;1.75;;;18.20;63.90;;;;;;5052038;28;20057;-83
2022/09/19 05:09:46;;;;;;;3.85;2.67;;;18.20;63.20;;;;;;5053112;28;20067;-88
2022/09/19 05:12:12;;;;;;;2.88;1.60;;;18.00;62.80;;;;;;5075472;28;20072;-81
2022/09/19 05:14:38;;;;;;;2.78;1.58;;;17.80;63.50;;;;;;5058098;28;20047;-86
2022/09/19 05:17:03;;;;;;;6.45;1.70;;;17.70;64.70;;;;;;5054389;28;20043;-79
2022/09/19 05:19:32;;;;;;;3.38;1.40;;;17.70;64.80;;;;;;5038567;28;20021;-85
2022/09/19 05:21:57;;;;;;;2.97;1.60;;;17.50;64.40;;;;;;5038209;28;20025;-85
2022/09/19 05:24:23;;;;;;;2.60;1.38;;;17.40;64.60;;;;;;5038254;28;20036;-84
2022/09/19 05:26:49;;;;;;;4.05;1.50;;;17.50;65.60;;;;;;5061795;28;20032;-87
2022/09/19 05:29:14;;;;;;;3.05;1.40;;;17.40;64.90;;;;;;5069893;28;20032;-82
2022/09/19 05:31:43;;;;;;;2.90;1.30;;;17.00;65.90;;;;;;5075974;28;20082;-85
2022/09/19 05:34:13;;;;;;;2.22;1.30;;;17.00;66.00;;;;;;5075775;28;20017;-83
2022/09/19 05:36:40;;;;;;;2.17;1.20;;;16.80;66.30;;;;;;5075600;28;20024;-82
2022/09/19 05:39:06;;;;;;;2.13;1.23;;;16.90;66.30;;;;;;5074005;28;20035;-81
2022/09/19 05:41:33;;;;;;;3.22;1.13;;;16.90;66.10;;;;;;5057428;28;20142;-79
2022/09/19 05:43:58;;;;;;;3.83;1.20;;;17.00;65.80;;;;;;5057750;28;20082;-79
2022/09/19 05:46:24;;;;;;;1.98;1.10;;;16.90;65.40;;;;;;5074622;28;20020;-84
2022/09/19 05:48:51;;;;;;;2.33;1.27;;;16.80;66.00;;;;;;5057140;28;20025;-79
2022/09/19 05:51:17;;;;;;;3.00;1.27;;;16.80;66.50;;;;;;5057330;28;20467;-79
2022/09/19 05:53:51;;;;;;;3.67;1.60;;;16.50;67.40;;;;;;5056756;28;20027;-83
2022/09/19 05:56:17;;;;;;;2.67;1.45;;;16.50;67.50;;;;;;5072125;28;20417;-84
2022/09/19 05:58:43;;;;;;;2.40;1.20;;;16.70;67.10;;;;;;5056610;28;20456;-79
2022/09/19 06:01:11;;;;;;;2.17;1.20;;;16.80;66.60;;;;;;5071259;28;20024;-82
2022/09/19 06:03:38;;;;;;;3.13;1.40;;;16.70;66.60;;;;;;4710895;28;9999708;-76
2022/09/19 06:06:18;;;;;;;2.95;1.40;;;17.00;66.40;;;;;;5048565;28;20025;-79
2022/09/19 06:08:55;;;;;;;2.50;1.40;;;17.10;67.00;;;;;;5055082;28;20032;-88
2022/09/19 06:11:24;;;;;;;2.47;1.30;;;17.40;66.20;;;;;;5053899;28;20028;-80
2022/09/19 06:16:35;;;;;;;2.70;1.30;;;17.40;65.80;;;;;;5053169;28;20031;-79
2022/09/19 06:19:01;;;;;;;2.85;1.20;;;17.30;66.10;;;;;;5052292;28;20033;-76
2022/09/19 06:21:27;;;;;;;2.08;1.17;;;17.30;66.10;;;;;;5054991;28;20025;-85
2022/09/19 06:23:53;;;;;;;3.45;1.23;;;17.20;67.30;;;;;;5052847;28;20079;-84
2022/09/19 06:26:20;;;;;;;2.20;1.25;;;17.20;67.00;;;;;;5053090;28;20024;-79
2022/09/19 06:28:46;;;;;;;2.28;1.20;;;17.30;66.20;;;;;;5055144;28;20452;-80
2022/09/19 06:31:14;;;;;;;3.33;1.30;;;17.20;66.50;;;;;;5042325;28;20029;-82
2022/09/19 06:33:43;;;;;;;3.40;1.52;;;16.90;67.40;;;;;;4706640;28;10000349;-88
2022/09/19 06:36:13;;;;;;;2.40;1.60;;;16.80;69.00;;;;;;5055624;28;20040;-79
2022/09/19 06:38:41;;;;;;;4.35;1.30;;;16.80;68.80;;;;;;5054820;28;20032;-80
2022/09/19 06:41:08;;;;;;;3.47;1.40;;;16.90;67.60;;;;;;5056362;28;20566;-79
2022/09/19 06:43:34;;;;;;;2.42;1.30;;;16.80;67.60;;;;;;4711219;28;10000239;-81
2022/09/19 06:46:00;;;;;;;3.05;1.30;;;16.80;68.30;;;;;;5058645;28;20057;-80
2022/09/19 06:48:25;;;;;;;2.25;1.30;;;17.10;67.60;;;;;;5048179;28;20021;-78
2022/09/19 06:50:52;;;;;;;2.50;1.50;;;17.50;66.70;;;;;;5055142;28;20037;-86
2022/09/19 06:53:18;;;;;;;2.28;1.30;;;17.70;65.80;;;;;;5052753;28;20059;-78
2022/09/19 06:55:44;;;;;;;2.63;1.58;;;17.70;66.90;;;;;;5070747;28;20028;-76
2022/09/19 06:58:11;;;;;;;2.85;1.33;;;17.60;66.70;;;;;;5039251;28;20105;-78
2022/09/19 07:00:38;;;;;;;2.55;1.30;;;17.80;66.50;;;;;;5066128;28;20111;-79
2022/09/19 07:03:15;;;;;;;1.60;1.20;;;17.90;65.50;;;;;;5072229;28;20024;-80
2022/09/19 07:05:44;;;;;;;2.47;1.40;;;18.10;64.90;;;;;;5070799;28;20086;-81
2022/09/19 07:08:12;;;;;;;3.90;1.20;;;18.10;65.50;;;;;;5071273;28;20037;-81
2022/09/19 07:10:38;;;;;;;2.28;1.40;;;18.30;64.80;;;;;;5044940;28;20060;-81
2022/09/19 07:13:05;;;;;;;2.63;1.30;;;18.50;64.40;;;;;;5051672;28;20083;-83
2022/09/19 07:15:33;;;;;;;3.38;1.30;;;18.50;64.60;;;;;;5053454;28;20028;-78
2022/09/19 07:17:59;;;;;;;3.15;1.20;;;18.80;64.10;;;;;;5052828;28;20029;-80
2022/09/19 07:20:27;;;;;;;7.55;1.83;;;19.00;63.80;;;;;;5053047;28;20115;-79
2022/09/19 07:23:05;;;;;;;2.72;1.40;;;19.20;62.90;;;;;;5050505;28;20040;-84
2022/09/19 07:25:32;;;;;;;4.05;1.60;;;19.50;63.00;;;;;;5050579;28;20028;-86
2022/09/19 07:28:00;;;;;;;2.40;1.30;;;19.60;62.50;;;;;;5043193;28;20365;-81
2022/09/19 07:30:26;;;;;;;3.17;1.30;;;19.60;60.40;;;;;;5066585;28;20043;-81
2022/09/19 07:32:57;;;;;;;2.40;1.30;;;19.20;61.40;;;;;;5053542;28;20040;-84
2022/09/19 07:35:27;;;;;;;;;;;19.00;62.50;;;;;;5054239;28;20031;-78
2022/09/19 07:37:53;;;;;;;;;;;18.60;62.10;;;;;;5070523;28;20003;-79
2022/09/19 07:40:19;;;;;;;3.90;1.38;;;18.20;62.90;;;;;;5071525;28;20008;-78
2022/09/19 07:42:45;;;;;;;2.70;1.30;;;18.10;63.70;;;;;;5071172;28;20024;-78
2022/09/19 07:45:11;;;;;;;2.20;1.20;;;18.10;62.00;;;;;;5059412;28;20033;-83
2022/09/19 07:47:45;;;;;;;2.10;1.20;;;18.00;62.50;;;;;;5050663;28;20575;-84
2022/09/19 07:50:16;;;;;;;1.67;1.00;;;18.00;62.00;;;;;;5051734;28;20025;-83
2022/09/19 07:52:46;;;;;;;2.65;1.10;;;18.00;62.70;;;;;;5048491;28;20032;-84
2022/09/19 07:55:13;;;;;;;3.63;1.17;;;18.20;61.40;;;;;;5051778;28;20376;-83
2022/09/19 07:57:53;;;;;;;1.50;1.00;;;18.40;61.60;;;;;;5052776;28;20253;-88
2022/09/19 08:00:19;;;;;;;1.75;1.00;;;18.50;60.50;;;;;;5052223;28;20023;-84
2022/09/19 08:03:02;;;;;;;1.73;1.10;;;18.70;60.40;;;;;;5066998;28;20479;-80
2022/09/19 08:05:34;;;;;;;2.00;1.00;;;18.70;60.50;;;;;;5069616;28;20103;-87
2022/09/19 08:08:00;;;;;;;1.38;1.00;;;18.80;59.60;;;;;;5071179;28;20035;-79
2022/09/19 08:10:26;;;;;;;2.00;1.10;;;18.70;59.80;;;;;;5053799;28;20032;-86
2022/09/19 08:12:52;;;;;;;1.98;1.10;;;18.90;59.90;;;;;;5053212;28;20502;-78
2022/09/19 08:15:19;;;;;;;1.50;1.00;;;18.80;59.60;;;;;;5052952;28;20074;-77
2022/09/19 08:17:59;;;;;;;2.17;1.10;;;18.40;59.60;;;;;;5034145;28;20029;-84
2022/09/19 08:20:34;;;;;;;2.13;1.00;;;18.20;61.20;;;;;;5037021;28;20025;-86
2022/09/19 08:23:05;;;;;;;1.42;1.02;;;18.40;60.90;;;;;;5033632;28;20029;-80
2022/09/19 08:25:34;;;;;;;1.70;1.00;;;18.80;59.20;;;;;;5051274;28;20483;-84
2022/09/19 08:28:03;;;;;;;1.70;1.10;;;18.90;58.40;;;;;;5050407;28;20040;-79
2022/09/19 08:30:29;;;;;;;1.33;0.98;;;19.00;58.50;;;;;;5055700;28;20025;-78
2022/09/19 08:33:00;;;;;;;4.50;1.10;;;19.20;57.70;;;;;;5052295;28;20043;-78
2022/09/19 08:35:27;;;;;;;2.22;1.00;;;18.50;57.30;;;;;;5042363;28;20036;-78
2022/09/19 08:37:58;;;;;;;1.35;1.00;;;18.50;58.80;;;;;;5075068;28;20017;-79
2022/09/19 08:40:34;;;;;;;1.80;1.02;;;18.90;58.20;;;;;;5058240;28;20324;-81
2022/09/19 08:43:00;;;;;;;3.85;1.15;;;19.30;57.70;;;;;;5058039;28;20467;-87
2022/09/19 08:45:58;;;;;;;3.25;1.10;;;19.00;58.00;;;;;;5058081;28;20046;-86
2022/09/19 08:48:32;;;;;;;1.83;1.10;;;18.80;58.50;;;;;;4978445;28;20042;-85
2022/09/19 08:51:03;;;;;;;3.22;1.15;;;18.90;58.20;;;;;;4994151;28;20092;-78
2022/09/19 08:53:34;;;;;;;2.35;1.00;;;19.10;59.50;;;;;;4977357;28;20042;-82
2022/09/19 08:56:00;;;;;;;2.10;1.10;;;19.30;57.90;;;;;;4961626;28;20449;-90
2022/09/19 08:58:30;;;;;;;4.20;1.13;;;19.60;56.10;;;;;;4978491;28;20254;-84
2022/09/19 09:00:56;;;;;;;2.67;1.13;;;19.60;56.50;;;;;;4975440;28;20334;-80
2022/09/19 09:03:51;;;;;;;1.80;1.10;;;19.70;55.60;;;;;;4979714;28;20572;-84
2022/09/19 09:06:44;;;;;;;2.13;1.00;;;19.50;54.90;;;;;;4979339;28;20038;-86
2022/09/19 09:09:26;;;;;;;2.13;1.10;;;19.20;55.30;;;;;;4995387;28;20030;-81
2022/09/19 09:12:14;;;;;;;1.92;1.10;;;18.60;56.60;;;;;;4994772;28;20057;-87
2022/09/19 09:14:57;;;;;;;3.17;1.00;;;18.60;56.70;;;;;;4979417;28;20034;-85
2022/09/19 09:17:54;;;;;;;2.30;1.10;;;18.90;57.50;;;;;;4978668;28;20038;-88
2022/09/19 09:20:47;;;;;;;2.50;1.20;;;19.30;56.30;;;;;;4985301;28;20031;-87
2022/09/19 09:23:19;;;;;;;2.47;1.25;;;19.70;55.00;;;;;;4995575;28;20117;-80
2022/09/19 09:25:49;;;;;;;4.35;1.20;;;19.80;53.10;;;;;;5030447;28;20040;-85
2022/09/19 09:29:01;;;;;;;3.17;1.30;;;19.40;53.80;;;;;;5036363;28;20111;-91
2022/09/19 09:31:36;;;;;;;2.00;1.20;;;19.10;55.00;;;;;;5034853;28;20444;-84
2022/09/19 09:34:22;;;;;;;2.30;1.20;;;18.90;54.40;;;;;;5035346;28;20488;-86
2022/09/19 09:37:06;;;;;;;1.55;1.00;;;19.20;55.80;;;;;;5036512;28;20034;-89
2022/09/19 09:42:32;;;;;;;2.25;1.55;;;19.80;54.80;;;;;;5036713;28;20036;-88
2022/09/19 09:45:13;;;;;;;4.43;1.30;;;20.00;53.60;;;;;;5034991;28;20052;-86
2022/09/19 09:47:49;;;;;;;2.90;1.10;;;19.80;53.80;;;;;;5034724;28;20022;-86
2022/09/19 09:50:37;;;;;;;3.20;1.20;;;19.80;54.90;;;;;;5036361;28;20057;-89
2022/09/19 09:53:24;;;;;;;4.28;1.20;;;20.00;53.30;;;;;;5035176;28;20037;-79
2022/09/19 09:58:43;;;;;;;2.80;1.10;;;20.00;54.90;;;;;;5036477;28;20037;-80
2022/09/19 10:04:12;;;;;;;2.03;1.00;;;20.60;52.80;;;;;;5036033;28;20044;-82
2022/09/19 10:06:52;;;;;;;3.20;1.08;;;20.10;51.90;;;;;;5035756;28;20022;-80
2022/09/19 10:09:30;;;;;;;1.33;1.00;;;19.50;53.80;;;;;;5035633;28;20544;-92
2022/09/19 10:12:08;;;;;;;2.28;1.10;;;19.60;54.50;;;;;;5037478;28;20041;-83
2022/09/19 10:14:37;;;;;;;2.55;1.20;;;19.10;53.40;;;;;;5057682;28;20032;-89
2022/09/19 10:17:05;;;;;;;1.67;1.27;;;18.90;54.60;;;;;;5057455;28;20548;-85
2022/09/19 10:19:31;;;;;;;2.20;1.00;;;19.50;54.70;;;;;;5057595;28;20024;-87
2022/09/19 10:21:57;;;;;;;2.60;1.40;;;19.70;54.30;;;;;;5057620;28;20506;-79
2022/09/19 10:24:43;;;;;;;3.60;2.50;;;19.90;52.60;;;;;;5075480;28;20382;-83
2022/09/19 10:27:16;;;;;;;3.45;1.90;;;20.00;53.00;;;;;;5076158;28;20025;-92
2022/09/19 10:29:59;;;;;;;5.60;1.30;;;19.90;52.80;;;;;;5075409;28;20027;-86
2022/09/19 10:32:39;;;;;;;4.30;1.20;;;20.10;52.40;;;;;;5075333;28;20028;-83
2022/09/19 10:35:26;;;;;;;2.50;1.30;;;20.10;52.70;;;;;;5057146;28;20119;-79
2022/09/19 10:38:21;;;;;;;2.38;1.10;;;20.10;53.50;;;;;;5075168;28;20036;-84
2022/09/19 10:40:58;;;;;;;2.50;1.08;;;20.40;53.60;;;;;;4974590;28;20046;-86
2022/09/19 10:43:31;;;;;;;2.15;1.40;;;20.70;52.70;;;;;;4958038;28;20058;-89
2022/09/19 10:45:58;;;;;;;4.88;1.52;;;20.20;52.90;;;;;;4974196;28;20035;-86
2022/09/19 10:48:31;;;;;;;3.75;1.60;;;19.80;53.60;;;;;;4974169;28;20438;-86
2022/09/19 10:51:02;;;;;;;5.30;1.30;;;19.70;53.40;;;;;;4973942;28;20035;-91
2022/09/19 10:53:30;;;;;;;3.22;1.70;;;19.70;54.20;;;;;;4613717;28;10000338;-85
2022/09/19 10:56:02;;;;;;;3.40;1.50;;;20.10;53.90;;;;;;4606865;28;10000054;-87
2022/09/19 10:58:35;;;;;;;5.70;1.70;;;20.40;53.60;;;;;;4937228;29;20039;-85
2022/09/19 11:01:04;;;;;;;6.53;1.40;;;20.30;52.80;;;;;;4953550;29;20027;-93
2022/09/19 11:03:32;;;;;;;3.65;1.30;;;19.90;54.20;;;;;;4938616;29;20035;-85
2022/09/19 11:06:16;;;;;;;5.82;1.50;;;19.50;55.70;;;;;;4954570;29;20039;-87
2022/09/19 11:08:51;;;;;;;3.83;1.20;;;18.70;59.40;;;;;;4954724;29;20043;-84
2022/09/19 11:11:45;;;;;;;2.85;1.20;;;18.00;62.80;;;;;;4938607;29;20046;-80
2022/09/19 11:14:31;;;;;;;2.70;1.25;;;17.60;62.30;;;;;;4954210;29;20544;-85
2022/09/19 11:17:31;;;;;;;2.88;1.73;;;17.40;65.10;;;;;;4995251;28;20029;-88
2022/09/19 11:20:16;;;;;;;2.72;1.40;;;17.50;64.20;;;;;;5054354;28;20074;-82
2022/09/19 11:23:18;;;;;;;2.70;1.33;;;18.00;65.00;;;;;;5053815;28;20017;-82
2022/09/19 11:26:19;;;;;;;2.55;1.40;;;18.30;64.40;;;;;;5036407;28;20028;-81
2022/09/19 11:29:12;;;;;;;2.97;1.65;;;18.70;64.60;;;;;;5036814;28;20056;-81
2022/09/19 11:32:13;;;;;;;1.98;1.08;;;19.30;63.30;;;;;;5029897;28;20033;-84
2022/09/19 11:34:48;;;;;;;;;;;19.20;60.90;;;;;;5039885;28;20426;-82
2022/09/19 11:37:28;;;;;;;1.50;1.00;;;18.80;62.70;;;;;;5052756;28;19904;-84
2022/09/19 11:39:57;;;;;;;2.92;1.10;;;18.70;63.90;;;;;;5053469;28;20036;-82
2022/09/19 11:42:28;;;;;;;2.70;1.42;;;19.30;61.90;;;;;;5053850;28;20024;-80
2022/09/19 11:45:28;;;;;;;1.85;1.00;;;19.50;61.40;;;;;;5036238;28;20075;-83
2022/09/19 11:48:03;;;;;;;1.52;1.00;;;19.40;59.80;;;;;;4972822;28;20074;-80
2022/09/19 11:50:48;;;;;;;5.22;1.00;;;19.40;60.60;;;;;;4973110;28;20162;-84
2022/09/19 11:53:32;;;;;;;2.65;1.10;;;19.50;60.00;;;;;;4972738;28;20045;-82
2022/09/19 11:56:36;;;;;;;2.88;1.60;;;19.40;59.80;;;;;;4972912;28;20577;-82
2022/09/19 11:59:39;;;;;;;3.38;1.20;;;19.60;58.50;;;;;;4880859;29;20515;-79
2022/09/19 12:02:34;;;;;;;2.50;1.40;;;19.80;57.20;;;;;;4896666;29;20507;-89
2022/09/19 12:05:17;;;;;;;2.33;1.40;;;19.90;57.00;;;;;;4880948;29;20040;-81
2022/09/19 12:07:43;;;;;;;1.48;1.00;;;19.90;56.90;;;;;;4880869;29;20043;-78
2022/09/19 12:10:25;;;;;;;1.67;1.00;;;20.00;56.20;;;;;;4880955;29;20036;-85
2022/09/19 12:13:16;;;;;;;2.13;1.20;;;19.70;55.90;;;;;;4880833;29;20056;-87
2022/09/19 12:15:58;;;;;;;3.92;2.30;;;19.80;56.20;;;;;;4896272;29;20057;-85
2022/09/19 12:18:32;;;;;;;2.88;1.50;;;19.90;54.90;;;;;;4880810;29;20084;-87
2022/09/19 12:21:00;;;;;;;3.92;2.33;;;19.60;56.70;;;;;;4881222;29;20036;-85
2022/09/19 12:26:47;;;;;;;2.58;1.50;;;19.90;57.00;;;;;;4973089;28;20042;-83
2022/09/19 12:29:27;;;;;;;3.08;1.85;;;20.30;54.30;;;;;;4972424;28;20122;-90
2022/09/19 12:32:00;;;;;;;2.03;1.20;;;20.30;54.80;;;;;;4972973;28;20454;-82
2022/09/19 12:34:36;;;;;;;2.17;1.20;;;20.20;55.90;;;;;;5009886;28;20266;-87
2022/09/19 12:37:15;;;;;;;2.13;1.23;;;20.00;55.30;;;;;;5053589;28;20032;-92
2022/09/19 12:39:53;;;;;;;3.10;1.10;;;20.10;54.60;;;;;;5053652;28;20100;-80
2022/09/19 12:42:32;;;;;;;1.35;1.00;;;20.00;55.30;;;;;;5053377;28;20025;-86
2022/09/19 12:45:12;;;;;;;4.05;1.20;;;20.00;55.50;;;;;;5036047;28;20459;-85
2022/09/19 12:47:55;;;;;;;2.15;1.10;;;19.90;56.10;;;;;;5052736;28;20036;-80
2022/09/19 12:50:52;;;;;;;1.60;1.10;;;19.90;55.30;;;;;;5035268;28;20120;-80
2022/09/19 12:53:40;;;;;;;1.55;1.00;;;19.80;55.50;;;;;;5023231;28;20417;-83
2022/09/19 12:56:31;;;;;;;1.90;1.10;;;19.60;54.60;;;;;;5035428;28;20032;-86
2022/09/19 12:59:23;;;;;;;2.47;1.00;;;19.50;55.50;;;;;;5051968;28;20029;-87
2022/09/19 13:02:01;;;;;;;2.42;1.05;;;19.20;56.00;;;;;;5051641;28;20021;-81
2022/09/19 13:04:59;;;;;;;2.15;1.10;;;19.00;55.70;;;;;;5052952;28;20133;-85
2022/09/19 13:07:52;;;;;;;1.60;1.00;;;19.00;55.70;;;;;;5025789;28;20029;-90
2022/09/19 13:10:40;;;;;;;1.90;1.05;;;19.70;56.00;;;;;;5044491;28;20119;-86
2022/09/19 13:13:36;;;;;;;1.70;1.02;;;19.90;54.80;;;;;;5054932;28;20056;-82
2022/09/19 13:16:11;;;;;;;1.88;1.10;;;19.80;54.60;;;;;;5076667;28;20043;-84
2022/09/19 13:24:41;;;;;;;2.58;1.30;;;20.00;53.30;;;;;;5076676;28;20044;-90
2022/09/19 13:27:09;;;;;;;1.77;1.10;;;19.20;54.60;;;;;;5076939;28;20028;-85
2022/09/19 13:29:35;;;;;;;2.50;1.20;;;19.20;54.40;;;;;;5058596;28;20016;-89
2022/09/19 13:32:04;;;;;;;1.80;1.20;;;19.50;54.80;;;;;;5058871;28;20446;-82
2022/09/19 13:34:32;;;;;;;4.60;1.20;;;19.70;54.10;;;;;;5076486;28;20084;-80
2022/09/19 13:37:01;;;;;;;1.70;1.10;;;19.40;54.80;;;;;;5058783;28;20036;-86
2022/09/19 13:39:52;;;;;;;1.73;1.00;;;19.40;55.50;;;;;;5058717;28;20028;-84
2022/09/19 13:42:40;;;;;;;1.73;1.20;;;19.70;55.10;;;;;;5057934;28;20047;-89
2022/09/19 13:45:32;;;;;;;2.08;1.20;;;19.50;54.90;;;;;;5058714;28;20360;-83
2022/09/19 13:48:13;;;;;;;2.25;1.20;;;19.70;54.70;;;;;;5057855;28;20120;-86